sensor_id;sensor_type;location;lat;lon;timestamp;P1;durP1;ratioP1;P2;durP2;ratioP2
8993;SDS011;4532;50.886;4.700;2023-03-14T00:00:29;4.60;;;0.80;;
8993;SDS011;4532;50.886;4.700;2023-03-14T00:02:58;6.60;;;1.10;;
8993;SDS011;4532;50.886;4.700;2023-03-14T00:05:28;4.00;;;1.10;;
8993;SDS011;4532;50.886;4.700;2023-03-14T00:07:57;3.47;;;0.93;;
8993;SDS011;4532;50.886;4.700;2023-03-14T00:10:24;3.47;;;1.10;;
8993;SDS011;4532;50.886;4.700;2023-03-14T00:12:56;3.67;;;1.10;;
8993;SDS011;4532;50.886;4.700;2023-03-14T00:15:23;5.90;;;1.20;;
8993;SDS011;4532;50.886;4.700;2023-03-14T00:17:50;6.40;;;1.07;;
8993;SDS011;4532;50.886;4.700;2023-03-14T00:20:17;3.67;;;1.23;;
8993;SDS011;4532;50.886;4.700;2023-03-14T00:22:49;6.20;;;1.37;;
8993;SDS011;4532;50.886;4.700;2023-03-14T00:25:16;7.43;;;1.30;;
8993;SDS011;4532;50.886;4.700;2023-03-14T00:27:46;6.33;;;1.30;;
8993;SDS011;4532;50.886;4.700;2023-03-14T00:30:13;4.97;;;1.10;;
8993;SDS011;4532;50.886;4.700;2023-03-14T00:32:40;6.03;;;1.00;;
8993;SDS011;4532;50.886;4.700;2023-03-14T00:35:10;6.33;;;1.40;;
8993;SDS011;4532;50.886;4.700;2023-03-14T00:37:41;4.37;;;1.33;;
8993;SDS011;4532;50.886;4.700;2023-03-14T00:40:09;4.47;;;1.40;;
8993;SDS011;4532;50.886;4.700;2023-03-14T00:42:39;5.20;;;1.43;;
8993;SDS011;4532;50.886;4.700;2023-03-14T00:45:08;4.50;;;1.57;;
8993;SDS011;4532;50.886;4.700;2023-03-14T00:47:36;5.63;;;1.43;;
8993;SDS011;4532;50.886;4.700;2023-03-14T00:50:07;6.00;;;1.53;;
8993;SDS011;4532;50.886;4.700;2023-03-14T00:52:39;4.70;;;1.53;;
8993;SDS011;4532;50.886;4.700;2023-03-14T00:55:08;6.70;;;1.80;;
8993;SDS011;4532;50.886;4.700;2023-03-14T00:57:38;6.50;;;1.63;;
8993;SDS011;4532;50.886;4.700;2023-03-14T01:00:07;6.97;;;2.03;;
8993;SDS011;4532;50.886;4.700;2023-03-14T01:02:39;7.40;;;2.13;;
8993;SDS011;4532;50.886;4.700;2023-03-14T01:05:09;4.43;;;1.13;;
8993;SDS011;4532;50.886;4.700;2023-03-14T01:07:41;3.60;;;1.30;;
8993;SDS011;4532;50.886;4.700;2023-03-14T01:10:11;4.60;;;1.43;;
8993;SDS011;4532;50.886;4.700;2023-03-14T01:12:38;6.67;;;1.77;;
8993;SDS011;4532;50.886;4.700;2023-03-14T01:15:08;8.73;;;1.63;;
8993;SDS011;4532;50.886;4.700;2023-03-14T01:17:38;6.80;;;1.80;;
8993;SDS011;4532;50.886;4.700;2023-03-14T01:20:09;6.67;;;1.67;;
8993;SDS011;4532;50.886;4.700;2023-03-14T01:22:41;4.40;;;1.53;;
8993;SDS011;4532;50.886;4.700;2023-03-14T01:25:13;6.43;;;1.63;;
8993;SDS011;4532;50.886;4.700;2023-03-14T01:27:44;5.10;;;1.30;;
8993;SDS011;4532;50.886;4.700;2023-03-14T01:30:14;6.73;;;1.97;;
8993;SDS011;4532;50.886;4.700;2023-03-14T01:32:44;6.97;;;2.27;;
8993;SDS011;4532;50.886;4.700;2023-03-14T01:35:11;8.47;;;1.87;;
8993;SDS011;4532;50.886;4.700;2023-03-14T01:37:41;8.50;;;2.03;;
8993;SDS011;4532;50.886;4.700;2023-03-14T01:40:10;6.67;;;2.07;;
8993;SDS011;4532;50.886;4.700;2023-03-14T01:42:55;9.63;;;2.00;;
8993;SDS011;4532;50.886;4.700;2023-03-14T01:48:44;8.77;;;2.27;;
8993;SDS011;4532;50.886;4.700;2023-03-14T01:51:38;6.10;;;1.50;;
8993;SDS011;4532;50.886;4.700;2023-03-14T01:56:50;8.07;;;1.57;;
8993;SDS011;4532;50.886;4.700;2023-03-14T01:59:29;8.73;;;1.83;;
8993;SDS011;4532;50.886;4.700;2023-03-14T02:02:00;8.10;;;1.87;;
8993;SDS011;4532;50.886;4.700;2023-03-14T02:04:32;5.27;;;1.30;;
8993;SDS011;4532;50.886;4.700;2023-03-14T02:07:18;3.63;;;1.07;;
8993;SDS011;4532;50.886;4.700;2023-03-14T02:09:56;7.33;;;1.30;;
8993;SDS011;4532;50.886;4.700;2023-03-14T02:12:27;5.23;;;1.37;;
8993;SDS011;4532;50.886;4.700;2023-03-14T02:14:57;4.33;;;1.00;;
8993;SDS011;4532;50.886;4.700;2023-03-14T02:17:27;6.33;;;1.10;;
8993;SDS011;4532;50.886;4.700;2023-03-14T02:22:40;4.73;;;0.90;;
8993;SDS011;4532;50.886;4.700;2023-03-14T02:27:52;4.43;;;1.20;;
8993;SDS011;4532;50.886;4.700;2023-03-14T02:30:25;3.83;;;1.00;;
8993;SDS011;4532;50.886;4.700;2023-03-14T02:33:08;3.20;;;0.93;;
8993;SDS011;4532;50.886;4.700;2023-03-14T02:41:02;3.13;;;0.70;;
8993;SDS011;4532;50.886;4.700;2023-03-14T02:43:30;3.50;;;0.77;;
8993;SDS011;4532;50.886;4.700;2023-03-14T02:46:00;2.07;;;0.63;;
8993;SDS011;4532;50.886;4.700;2023-03-14T02:48:37;2.60;;;0.90;;
8993;SDS011;4532;50.886;4.700;2023-03-14T02:51:11;3.20;;;0.70;;
8993;SDS011;4532;50.886;4.700;2023-03-14T02:53:45;2.43;;;0.90;;
8993;SDS011;4532;50.886;4.700;2023-03-14T02:56:12;2.80;;;0.80;;
8993;SDS011;4532;50.886;4.700;2023-03-14T02:58:40;4.37;;;1.10;;
8993;SDS011;4532;50.886;4.700;2023-03-14T03:01:07;4.63;;;1.10;;
8993;SDS011;4532;50.886;4.700;2023-03-14T03:03:34;2.77;;;1.03;;
8993;SDS011;4532;50.886;4.700;2023-03-14T03:06:04;3.27;;;0.70;;
8993;SDS011;4532;50.886;4.700;2023-03-14T03:08:31;2.90;;;0.70;;
8993;SDS011;4532;50.886;4.700;2023-03-14T03:10:58;3.93;;;0.80;;
8993;SDS011;4532;50.886;4.700;2023-03-14T03:13:25;3.33;;;1.07;;
8993;SDS011;4532;50.886;4.700;2023-03-14T03:15:53;3.07;;;1.00;;
8993;SDS011;4532;50.886;4.700;2023-03-14T03:18:20;1.93;;;0.57;;
8993;SDS011;4532;50.886;4.700;2023-03-14T03:20:52;3.67;;;1.00;;
8993;SDS011;4532;50.886;4.700;2023-03-14T03:23:21;3.57;;;1.03;;
8993;SDS011;4532;50.886;4.700;2023-03-14T03:25:49;4.77;;;1.30;;
8993;SDS011;4532;50.886;4.700;2023-03-14T03:28:19;3.57;;;0.93;;
8993;SDS011;4532;50.886;4.700;2023-03-14T03:30:51;3.93;;;1.17;;
8993;SDS011;4532;50.886;4.700;2023-03-14T03:33:18;5.57;;;1.70;;
8993;SDS011;4532;50.886;4.700;2023-03-14T03:35:51;4.60;;;1.20;;
8993;SDS011;4532;50.886;4.700;2023-03-14T03:38:21;5.37;;;1.43;;
8993;SDS011;4532;50.886;4.700;2023-03-14T03:40:48;5.03;;;1.53;;
8993;SDS011;4532;50.886;4.700;2023-03-14T03:43:17;5.47;;;1.50;;
8993;SDS011;4532;50.886;4.700;2023-03-14T03:45:49;5.63;;;1.90;;
8993;SDS011;4532;50.886;4.700;2023-03-14T03:48:21;7.67;;;1.87;;
8993;SDS011;4532;50.886;4.700;2023-03-14T03:50:51;5.43;;;1.60;;
8993;SDS011;4532;50.886;4.700;2023-03-14T03:53:18;4.67;;;1.60;;
8993;SDS011;4532;50.886;4.700;2023-03-14T03:55:58;7.50;;;1.53;;
8993;SDS011;4532;50.886;4.700;2023-03-14T03:58:31;6.03;;;1.80;;
8993;SDS011;4532;50.886;4.700;2023-03-14T04:00:58;5.60;;;1.57;;
8993;SDS011;4532;50.886;4.700;2023-03-14T04:03:27;6.20;;;1.90;;
8993;SDS011;4532;50.886;4.700;2023-03-14T04:05:59;5.03;;;1.43;;
8993;SDS011;4532;50.886;4.700;2023-03-14T04:08:31;3.53;;;1.40;;
8993;SDS011;4532;50.886;4.700;2023-03-14T04:11:01;3.23;;;1.43;;
8993;SDS011;4532;50.886;4.700;2023-03-14T04:13:30;4.50;;;1.23;;
8993;SDS011;4532;50.886;4.700;2023-03-14T04:16:00;5.43;;;1.50;;
8993;SDS011;4532;50.886;4.700;2023-03-14T04:18:27;3.23;;;1.13;;
8993;SDS011;4532;50.886;4.700;2023-03-14T04:20:57;4.63;;;1.47;;
8993;SDS011;4532;50.886;4.700;2023-03-14T04:23:24;5.67;;;1.33;;
8993;SDS011;4532;50.886;4.700;2023-03-14T04:25:56;4.63;;;1.20;;
8993;SDS011;4532;50.886;4.700;2023-03-14T04:28:23;5.60;;;1.50;;
8993;SDS011;4532;50.886;4.700;2023-03-14T04:30:55;5.33;;;1.50;;
8993;SDS011;4532;50.886;4.700;2023-03-14T04:33:23;6.00;;;1.30;;
8993;SDS011;4532;50.886;4.700;2023-03-14T04:35:55;2.67;;;1.10;;
8993;SDS011;4532;50.886;4.700;2023-03-14T04:38:22;4.17;;;1.20;;
8993;SDS011;4532;50.886;4.700;2023-03-14T04:40:49;4.03;;;1.20;;
8993;SDS011;4532;50.886;4.700;2023-03-14T04:43:20;2.70;;;1.30;;
8993;SDS011;4532;50.886;4.700;2023-03-14T04:45:48;3.43;;;1.40;;
8993;SDS011;4532;50.886;4.700;2023-03-14T04:48:15;4.10;;;1.13;;
8993;SDS011;4532;50.886;4.700;2023-03-14T04:50:47;2.60;;;1.10;;
8993;SDS011;4532;50.886;4.700;2023-03-14T04:53:21;4.70;;;1.30;;
8993;SDS011;4532;50.886;4.700;2023-03-14T04:55:52;3.30;;;1.20;;
8993;SDS011;4532;50.886;4.700;2023-03-14T04:58:25;5.30;;;1.23;;
8993;SDS011;4532;50.886;4.700;2023-03-14T05:00:52;3.73;;;1.03;;
8993;SDS011;4532;50.886;4.700;2023-03-14T05:03:22;4.20;;;1.23;;
8993;SDS011;4532;50.886;4.700;2023-03-14T05:05:51;2.10;;;0.80;;
8993;SDS011;4532;50.886;4.700;2023-03-14T05:08:21;3.83;;;0.73;;
8993;SDS011;4532;50.886;4.700;2023-03-14T05:10:53;3.03;;;1.07;;
8993;SDS011;4532;50.886;4.700;2023-03-14T05:13:21;2.60;;;0.90;;
8993;SDS011;4532;50.886;4.700;2023-03-14T05:15:53;5.13;;;1.13;;
8993;SDS011;4532;50.886;4.700;2023-03-14T05:18:24;2.30;;;1.00;;
8993;SDS011;4532;50.886;4.700;2023-03-14T05:20:53;2.07;;;1.00;;
8993;SDS011;4532;50.886;4.700;2023-03-14T05:23:20;2.83;;;1.37;;
8993;SDS011;4532;50.886;4.700;2023-03-14T05:25:47;3.07;;;1.13;;
8993;SDS011;4532;50.886;4.700;2023-03-14T05:28:15;2.00;;;0.83;;
8993;SDS011;4532;50.886;4.700;2023-03-14T05:30:44;1.40;;;0.80;;
8993;SDS011;4532;50.886;4.700;2023-03-14T05:33:16;3.33;;;1.20;;
8993;SDS011;4532;50.886;4.700;2023-03-14T05:35:43;2.33;;;1.33;;
8993;SDS011;4532;50.886;4.700;2023-03-14T05:38:13;2.57;;;1.20;;
8993;SDS011;4532;50.886;4.700;2023-03-14T05:40:44;4.00;;;1.40;;
8993;SDS011;4532;50.886;4.700;2023-03-14T05:43:11;3.93;;;2.33;;
8993;SDS011;4532;50.886;4.700;2023-03-14T05:45:41;2.33;;;1.30;;
8993;SDS011;4532;50.886;4.700;2023-03-14T05:48:13;3.13;;;1.40;;
8993;SDS011;4532;50.886;4.700;2023-03-14T05:50:40;2.80;;;1.50;;
8993;SDS011;4532;50.886;4.700;2023-03-14T05:53:08;4.90;;;1.20;;
8993;SDS011;4532;50.886;4.700;2023-03-14T05:55:35;1.70;;;1.13;;
8993;SDS011;4532;50.886;4.700;2023-03-14T05:58:02;3.23;;;1.23;;
8993;SDS011;4532;50.886;4.700;2023-03-14T06:00:29;2.67;;;1.47;;
8993;SDS011;4532;50.886;4.700;2023-03-14T06:02:58;2.07;;;1.30;;
8993;SDS011;4532;50.886;4.700;2023-03-14T06:05:28;2.87;;;1.40;;
8993;SDS011;4532;50.886;4.700;2023-03-14T06:07:57;3.13;;;1.50;;
8993;SDS011;4532;50.886;4.700;2023-03-14T06:10:24;2.10;;;1.40;;
8993;SDS011;4532;50.886;4.700;2023-03-14T06:12:52;1.43;;;1.20;;
8993;SDS011;4532;50.886;4.700;2023-03-14T06:15:21;2.00;;;1.67;;
8993;SDS011;4532;50.886;4.700;2023-03-14T06:17:48;1.80;;;1.60;;
8993;SDS011;4532;50.886;4.700;2023-03-14T06:20:16;3.37;;;1.83;;
8993;SDS011;4532;50.886;4.700;2023-03-14T06:22:48;2.87;;;2.30;;
8993;SDS011;4532;50.886;4.700;2023-03-14T06:25:15;2.23;;;1.93;;
8993;SDS011;4532;50.886;4.700;2023-03-14T06:27:42;2.67;;;2.23;;
8993;SDS011;4532;50.886;4.700;2023-03-14T06:30:10;4.23;;;2.30;;
8993;SDS011;4532;50.886;4.700;2023-03-14T06:32:37;4.03;;;2.60;;
8993;SDS011;4532;50.886;4.700;2023-03-14T06:35:07;7.43;;;2.67;;
8993;SDS011;4532;50.886;4.700;2023-03-14T06:37:37;5.23;;;2.27;;
8993;SDS011;4532;50.886;4.700;2023-03-14T06:40:07;3.97;;;2.37;;
8993;SDS011;4532;50.886;4.700;2023-03-14T06:42:46;6.67;;;2.63;;
8993;SDS011;4532;50.886;4.700;2023-03-14T06:45:13;3.70;;;2.17;;
8993;SDS011;4532;50.886;4.700;2023-03-14T06:47:44;4.87;;;1.70;;
8993;SDS011;4532;50.886;4.700;2023-03-14T06:50:13;2.37;;;1.33;;
8993;SDS011;4532;50.886;4.700;2023-03-14T06:52:45;3.23;;;1.40;;
8993;SDS011;4532;50.886;4.700;2023-03-14T06:55:16;4.23;;;1.20;;
8993;SDS011;4532;50.886;4.700;2023-03-14T06:57:46;3.07;;;1.40;;
8993;SDS011;4532;50.886;4.700;2023-03-14T07:00:14;2.17;;;1.10;;
8993;SDS011;4532;50.886;4.700;2023-03-14T07:02:44;2.67;;;1.23;;
8993;SDS011;4532;50.886;4.700;2023-03-14T07:05:11;6.07;;;1.70;;
8993;SDS011;4532;50.886;4.700;2023-03-14T07:07:41;4.23;;;1.00;;
8993;SDS011;4532;50.886;4.700;2023-03-14T07:10:08;3.23;;;1.20;;
8993;SDS011;4532;50.886;4.700;2023-03-14T07:12:38;3.60;;;0.80;;
8993;SDS011;4532;50.886;4.700;2023-03-14T07:15:05;0.70;;;0.40;;
8993;SDS011;4532;50.886;4.700;2023-03-14T07:17:48;1.60;;;0.50;;
8993;SDS011;4532;50.886;4.700;2023-03-14T07:20:18;1.00;;;0.50;;
8993;SDS011;4532;50.886;4.700;2023-03-14T07:22:50;0.70;;;0.57;;
8993;SDS011;4532;50.886;4.700;2023-03-14T07:25:17;0.50;;;0.50;;
8993;SDS011;4532;50.886;4.700;2023-03-14T07:27:45;1.13;;;0.60;;
8993;SDS011;4532;50.886;4.700;2023-03-14T07:30:18;2.57;;;0.70;;
8993;SDS011;4532;50.886;4.700;2023-03-14T07:32:46;1.63;;;0.70;;
8993;SDS011;4532;50.886;4.700;2023-03-14T07:35:13;2.47;;;0.60;;
8993;SDS011;4532;50.886;4.700;2023-03-14T07:37:42;2.13;;;0.90;;
8993;SDS011;4532;50.886;4.700;2023-03-14T07:40:12;1.63;;;0.60;;
8993;SDS011;4532;50.886;4.700;2023-03-14T07:42:43;1.80;;;0.73;;
8993;SDS011;4532;50.886;4.700;2023-03-14T07:45:11;1.80;;;0.60;;
8993;SDS011;4532;50.886;4.700;2023-03-14T07:47:40;4.57;;;1.07;;
8993;SDS011;4532;50.886;4.700;2023-03-14T07:50:14;2.77;;;0.80;;
8993;SDS011;4532;50.886;4.700;2023-03-14T07:52:48;2.07;;;0.60;;
8993;SDS011;4532;50.886;4.700;2023-03-14T07:55:16;3.63;;;1.13;;
8993;SDS011;4532;50.886;4.700;2023-03-14T07:57:43;5.23;;;0.80;;
8993;SDS011;4532;50.886;4.700;2023-03-14T08:00:11;3.77;;;1.10;;
8993;SDS011;4532;50.886;4.700;2023-03-14T08:02:43;2.20;;;0.97;;
8993;SDS011;4532;50.886;4.700;2023-03-14T08:05:13;3.07;;;0.70;;
8993;SDS011;4532;50.886;4.700;2023-03-14T08:07:40;3.63;;;1.30;;
8993;SDS011;4532;50.886;4.700;2023-03-14T08:10:08;2.97;;;1.40;;
8993;SDS011;4532;50.886;4.700;2023-03-14T08:12:38;6.00;;;1.53;;
8993;SDS011;4532;50.886;4.700;2023-03-14T08:15:05;2.93;;;1.30;;
8993;SDS011;4532;50.886;4.700;2023-03-14T08:17:33;4.03;;;1.77;;
8993;SDS011;4532;50.886;4.700;2023-03-14T08:20:02;4.20;;;1.60;;
8993;SDS011;4532;50.886;4.700;2023-03-14T08:22:36;3.63;;;2.10;;
8993;SDS011;4532;50.886;4.700;2023-03-14T08:25:05;3.67;;;2.00;;
8993;SDS011;4532;50.886;4.700;2023-03-14T08:27:33;3.83;;;1.90;;
8993;SDS011;4532;50.886;4.700;2023-03-14T08:30:05;6.27;;;2.10;;
8993;SDS011;4532;50.886;4.700;2023-03-14T08:32:33;3.63;;;2.30;;
8993;SDS011;4532;50.886;4.700;2023-03-14T08:35:00;6.60;;;2.50;;
8993;SDS011;4532;50.886;4.700;2023-03-14T08:37:28;5.47;;;2.27;;
8993;SDS011;4532;50.886;4.700;2023-03-14T08:40:00;4.93;;;2.70;;
8993;SDS011;4532;50.886;4.700;2023-03-14T08:42:27;4.53;;;2.00;;
8993;SDS011;4532;50.886;4.700;2023-03-14T08:44:54;3.30;;;2.30;;
8993;SDS011;4532;50.886;4.700;2023-03-14T08:47:27;2.37;;;1.70;;
8993;SDS011;4532;50.886;4.700;2023-03-14T08:49:56;3.77;;;1.50;;
8993;SDS011;4532;50.886;4.700;2023-03-14T08:52:23;3.03;;;1.30;;
8993;SDS011;4532;50.886;4.700;2023-03-14T08:54:51;3.37;;;1.40;;
8993;SDS011;4532;50.886;4.700;2023-03-14T08:57:20;3.53;;;1.27;;
8993;SDS011;4532;50.886;4.700;2023-03-14T08:59:48;3.17;;;1.40;;
8993;SDS011;4532;50.886;4.700;2023-03-14T09:02:17;1.73;;;1.00;;
8993;SDS011;4532;50.886;4.700;2023-03-14T09:04:50;4.60;;;1.23;;
8993;SDS011;4532;50.886;4.700;2023-03-14T09:07:17;3.17;;;1.10;;
8993;SDS011;4532;50.886;4.700;2023-03-14T09:09:48;2.50;;;0.97;;
8993;SDS011;4532;50.886;4.700;2023-03-14T09:12:15;2.13;;;1.13;;
8993;SDS011;4532;50.886;4.700;2023-03-14T09:14:42;5.00;;;1.37;;
8993;SDS011;4532;50.886;4.700;2023-03-14T09:17:13;3.43;;;1.40;;
8993;SDS011;4532;50.886;4.700;2023-03-14T09:19:41;3.97;;;1.80;;
8993;SDS011;4532;50.886;4.700;2023-03-14T09:22:08;4.47;;;2.30;;
8993;SDS011;4532;50.886;4.700;2023-03-14T09:24:37;3.33;;;2.20;;
8993;SDS011;4532;50.886;4.700;2023-03-14T09:27:09;5.37;;;2.30;;
8993;SDS011;4532;50.886;4.700;2023-03-14T09:29:36;5.17;;;2.20;;
8993;SDS011;4532;50.886;4.700;2023-03-14T09:32:11;6.33;;;2.40;;
8993;SDS011;4532;50.886;4.700;2023-03-14T09:34:39;3.10;;;1.67;;
8993;SDS011;4532;50.886;4.700;2023-03-14T09:37:06;3.00;;;1.37;;
8993;SDS011;4532;50.886;4.700;2023-03-14T09:39:35;4.80;;;1.93;;
8993;SDS011;4532;50.886;4.700;2023-03-14T09:42:06;4.20;;;1.70;;
8993;SDS011;4532;50.886;4.700;2023-03-14T09:44:39;2.27;;;1.70;;
8993;SDS011;4532;50.886;4.700;2023-03-14T09:47:20;5.33;;;1.73;;
8993;SDS011;4532;50.886;4.700;2023-03-14T09:49:54;3.83;;;1.90;;
8993;SDS011;4532;50.886;4.700;2023-03-14T09:52:26;3.77;;;2.47;;
8993;SDS011;4532;50.886;4.700;2023-03-14T09:55:11;3.03;;;2.20;;
8993;SDS011;4532;50.886;4.700;2023-03-14T09:57:45;2.80;;;2.20;;
8993;SDS011;4532;50.886;4.700;2023-03-14T10:02:50;5.97;;;2.37;;
8993;SDS011;4532;50.886;4.700;2023-03-14T10:05:38;4.90;;;2.50;;
8993;SDS011;4532;50.886;4.700;2023-03-14T10:08:11;6.33;;;2.60;;
8993;SDS011;4532;50.886;4.700;2023-03-14T10:10:43;5.43;;;2.13;;
8993;SDS011;4532;50.886;4.700;2023-03-14T10:13:16;7.47;;;2.40;;
8993;SDS011;4532;50.886;4.700;2023-03-14T10:15:50;12.67;;;2.80;;
8993;SDS011;4532;50.886;4.700;2023-03-14T10:18:38;5.90;;;2.20;;
8993;SDS011;4532;50.886;4.700;2023-03-14T10:24:07;7.10;;;2.60;;
8993;SDS011;4532;50.886;4.700;2023-03-14T10:26:35;6.10;;;2.50;;
8993;SDS011;4532;50.886;4.700;2023-03-14T10:29:10;5.77;;;2.63;;
8993;SDS011;4532;50.886;4.700;2023-03-14T10:31:57;5.67;;;2.17;;
8993;SDS011;4532;50.886;4.700;2023-03-14T10:34:37;6.37;;;3.00;;
8993;SDS011;4532;50.886;4.700;2023-03-14T10:37:14;7.27;;;1.93;;
8993;SDS011;4532;50.886;4.700;2023-03-14T10:39:47;7.83;;;2.37;;
8993;SDS011;4532;50.886;4.700;2023-03-14T10:42:27;5.17;;;1.30;;
8993;SDS011;4532;50.886;4.700;2023-03-14T10:47:57;3.70;;;1.10;;
8993;SDS011;4532;50.886;4.700;2023-03-14T10:51:04;4.37;;;1.10;;
8993;SDS011;4532;50.886;4.700;2023-03-14T10:54:03;2.13;;;0.80;;
8993;SDS011;4532;50.886;4.700;2023-03-14T10:57:01;1.47;;;0.50;;
8993;SDS011;4532;50.886;4.700;2023-03-14T10:59:37;2.23;;;0.70;;
8993;SDS011;4532;50.886;4.700;2023-03-14T11:02:21;3.37;;;0.80;;
8993;SDS011;4532;50.886;4.700;2023-03-14T11:07:49;1.60;;;0.63;;
8993;SDS011;4532;50.886;4.700;2023-03-14T11:10:36;2.67;;;0.67;;
8993;SDS011;4532;50.886;4.700;2023-03-14T11:13:22;1.57;;;0.50;;
8993;SDS011;4532;50.886;4.700;2023-03-14T11:15:58;1.63;;;0.70;;
8993;SDS011;4532;50.886;4.700;2023-03-14T11:40:57;0.93;;;0.50;;
8993;SDS011;4532;50.886;4.700;2023-03-14T11:43:32;1.17;;;0.50;;
8993;SDS011;4532;50.886;4.700;2023-03-14T11:46:05;1.40;;;0.37;;
8993;SDS011;4532;50.886;4.700;2023-03-14T11:48:51;1.83;;;0.57;;
8993;SDS011;4532;50.886;4.700;2023-03-14T11:51:42;2.97;;;0.80;;
8993;SDS011;4532;50.886;4.700;2023-03-14T11:54:18;1.83;;;0.60;;
8993;SDS011;4532;50.886;4.700;2023-03-14T11:56:59;1.73;;;1.17;;
8993;SDS011;4532;50.886;4.700;2023-03-14T11:59:33;1.37;;;0.53;;
8993;SDS011;4532;50.886;4.700;2023-03-14T12:10:23;2.33;;;1.03;;
8993;SDS011;4532;50.886;4.700;2023-03-14T12:12:52;1.93;;;0.50;;
8993;SDS011;4532;50.886;4.700;2023-03-14T12:15:20;2.00;;;0.60;;
8993;SDS011;4532;50.886;4.700;2023-03-14T12:17:57;1.03;;;0.57;;
8993;SDS011;4532;50.886;4.700;2023-03-14T12:20:24;2.03;;;0.53;;
8993;SDS011;4532;50.886;4.700;2023-03-14T12:22:56;2.27;;;0.70;;
8993;SDS011;4532;50.886;4.700;2023-03-14T12:25:32;3.47;;;0.73;;
8993;SDS011;4532;50.886;4.700;2023-03-14T12:28:04;0.90;;;0.60;;
8993;SDS011;4532;50.886;4.700;2023-03-14T12:30:46;3.20;;;0.93;;
8993;SDS011;4532;50.886;4.700;2023-03-14T12:35:50;1.50;;;0.63;;
8993;SDS011;4532;50.886;4.700;2023-03-14T12:41:17;2.57;;;0.70;;
8993;SDS011;4532;50.886;4.700;2023-03-14T12:49:47;4.80;;;1.10;;
8993;SDS011;4532;50.886;4.700;2023-03-14T12:52:20;5.97;;;1.40;;
8993;SDS011;4532;50.886;4.700;2023-03-14T12:57:39;7.97;;;1.20;;
8993;SDS011;4532;50.886;4.700;2023-03-14T13:02:48;12.30;;;2.10;;
8993;SDS011;4532;50.886;4.700;2023-03-14T13:15:46;6.17;;;1.67;;
8993;SDS011;4532;50.886;4.700;2023-03-14T13:23:53;4.53;;;1.27;;
8993;SDS011;4532;50.886;4.700;2023-03-14T13:26:36;3.67;;;1.10;;
8993;SDS011;4532;50.886;4.700;2023-03-14T13:29:22;5.00;;;1.20;;
8993;SDS011;4532;50.886;4.700;2023-03-14T13:31:55;2.60;;;1.00;;
8993;SDS011;4532;50.886;4.700;2023-03-14T13:34:28;4.80;;;1.40;;
8993;SDS011;4532;50.886;4.700;2023-03-14T13:36:57;3.63;;;1.30;;
8993;SDS011;4532;50.886;4.700;2023-03-14T13:39:25;8.60;;;1.20;;
8993;SDS011;4532;50.886;4.700;2023-03-14T13:41:58;5.20;;;1.53;;
8993;SDS011;4532;50.886;4.700;2023-03-14T13:44:30;5.80;;;1.50;;
8993;SDS011;4532;50.886;4.700;2023-03-14T13:47:09;8.63;;;1.80;;
8993;SDS011;4532;50.886;4.700;2023-03-14T13:49:42;4.30;;;1.13;;
8993;SDS011;4532;50.886;4.700;2023-03-14T13:52:32;6.87;;;2.30;;
8993;SDS011;4532;50.886;4.700;2023-03-14T13:55:05;5.97;;;1.87;;
8993;SDS011;4532;50.886;4.700;2023-03-14T13:57:43;5.43;;;1.43;;
8993;SDS011;4532;50.886;4.700;2023-03-14T14:00:22;9.27;;;2.77;;
8993;SDS011;4532;50.886;4.700;2023-03-14T14:02:56;5.80;;;1.50;;
8993;SDS011;4532;50.886;4.700;2023-03-14T14:05:26;9.80;;;1.87;;
8993;SDS011;4532;50.886;4.700;2023-03-14T14:07:55;8.90;;;2.10;;
8993;SDS011;4532;50.886;4.700;2023-03-14T14:10:25;9.60;;;2.30;;
8993;SDS011;4532;50.886;4.700;2023-03-14T14:13:03;9.37;;;2.00;;
8993;SDS011;4532;50.886;4.700;2023-03-14T14:15:37;8.27;;;1.97;;
8993;SDS011;4532;50.886;4.700;2023-03-14T14:18:14;10.30;;;2.27;;
8993;SDS011;4532;50.886;4.700;2023-03-14T14:20:51;14.43;;;3.60;;
8993;SDS011;4532;50.886;4.700;2023-03-14T14:23:29;14.13;;;2.90;;
8993;SDS011;4532;50.886;4.700;2023-03-14T14:26:02;12.53;;;2.70;;
8993;SDS011;4532;50.886;4.700;2023-03-14T14:28:35;14.50;;;2.37;;
8993;SDS011;4532;50.886;4.700;2023-03-14T14:31:06;11.53;;;2.20;;
8993;SDS011;4532;50.886;4.700;2023-03-14T14:33:58;9.73;;;2.00;;
8993;SDS011;4532;50.886;4.700;2023-03-14T14:39:18;7.40;;;1.90;;
8993;SDS011;4532;50.886;4.700;2023-03-14T14:41:50;11.07;;;2.30;;
8993;SDS011;4532;50.886;4.700;2023-03-14T14:44:21;9.97;;;2.33;;
8993;SDS011;4532;50.886;4.700;2023-03-14T14:46:58;9.60;;;2.17;;
8993;SDS011;4532;50.886;4.700;2023-03-14T14:49:32;12.03;;;2.70;;
8993;SDS011;4532;50.886;4.700;2023-03-14T14:52:04;8.93;;;2.10;;
8993;SDS011;4532;50.886;4.700;2023-03-14T14:54:46;9.40;;;2.10;;
8993;SDS011;4532;50.886;4.700;2023-03-14T14:57:21;9.43;;;2.53;;
8993;SDS011;4532;50.886;4.700;2023-03-14T14:59:56;12.30;;;2.17;;
8993;SDS011;4532;50.886;4.700;2023-03-14T15:02:36;9.87;;;1.40;;
8993;SDS011;4532;50.886;4.700;2023-03-14T15:05:28;7.23;;;1.43;;
8993;SDS011;4532;50.886;4.700;2023-03-14T15:07:57;6.60;;;1.30;;
8993;SDS011;4532;50.886;4.700;2023-03-14T15:10:29;6.13;;;1.40;;
8993;SDS011;4532;50.886;4.700;2023-03-14T15:12:59;8.40;;;1.60;;
8993;SDS011;4532;50.886;4.700;2023-03-14T15:15:26;4.77;;;1.10;;
8993;SDS011;4532;50.886;4.700;2023-03-14T15:17:56;6.20;;;0.97;;
8993;SDS011;4532;50.886;4.700;2023-03-14T15:20:23;6.53;;;1.10;;
8993;SDS011;4532;50.886;4.700;2023-03-14T15:22:53;5.37;;;0.80;;
8993;SDS011;4532;50.886;4.700;2023-03-14T15:25:20;3.97;;;0.90;;
8993;SDS011;4532;50.886;4.700;2023-03-14T15:28:24;3.50;;;1.10;;
8993;SDS011;4532;50.886;4.700;2023-03-14T15:30:58;6.67;;;0.90;;
8993;SDS011;4532;50.886;4.700;2023-03-14T15:33:30;6.40;;;1.20;;
8993;SDS011;4532;50.886;4.700;2023-03-14T15:36:02;3.23;;;0.90;;
8993;SDS011;4532;50.886;4.700;2023-03-14T15:38:30;4.37;;;1.10;;
8993;SDS011;4532;50.886;4.700;2023-03-14T15:40:57;2.57;;;0.70;;
8993;SDS011;4532;50.886;4.700;2023-03-14T15:43:27;3.67;;;0.80;;
8993;SDS011;4532;50.886;4.700;2023-03-14T15:45:54;2.83;;;0.90;;
8993;SDS011;4532;50.886;4.700;2023-03-14T15:48:23;1.37;;;0.80;;
8993;SDS011;4532;50.886;4.700;2023-03-14T15:50:50;4.13;;;1.00;;
8993;SDS011;4532;50.886;4.700;2023-03-14T15:53:20;3.53;;;1.03;;
8993;SDS011;4532;50.886;4.700;2023-03-14T15:55:47;3.73;;;0.87;;
8993;SDS011;4532;50.886;4.700;2023-03-14T15:58:16;3.40;;;1.07;;
8993;SDS011;4532;50.886;4.700;2023-03-14T16:00:50;2.73;;;1.13;;
8993;SDS011;4532;50.886;4.700;2023-03-14T16:03:22;3.00;;;1.10;;
8993;SDS011;4532;50.886;4.700;2023-03-14T16:05:52;3.30;;;1.30;;
8993;SDS011;4532;50.886;4.700;2023-03-14T16:08:24;4.30;;;1.57;;
8993;SDS011;4532;50.886;4.700;2023-03-14T16:10:57;3.63;;;1.30;;
8993;SDS011;4532;50.886;4.700;2023-03-14T16:13:25;2.80;;;1.20;;
8993;SDS011;4532;50.886;4.700;2023-03-14T16:15:57;7.00;;;1.50;;
8993;SDS011;4532;50.886;4.700;2023-03-14T16:18:33;8.50;;;1.33;;
8993;SDS011;4532;50.886;4.700;2023-03-14T16:21:03;4.47;;;1.20;;
8993;SDS011;4532;50.886;4.700;2023-03-14T16:23:37;8.20;;;1.10;;
8993;SDS011;4532;50.886;4.700;2023-03-14T16:26:11;8.07;;;2.10;;
8993;SDS011;4532;50.886;4.700;2023-03-14T16:28:41;6.97;;;1.63;;
8993;SDS011;4532;50.886;4.700;2023-03-14T16:31:15;10.10;;;1.53;;
8993;SDS011;4532;50.886;4.700;2023-03-14T16:33:44;6.20;;;1.47;;
8993;SDS011;4532;50.886;4.700;2023-03-14T16:36:18;6.17;;;1.47;;
8993;SDS011;4532;50.886;4.700;2023-03-14T16:38:45;6.00;;;1.60;;
8993;SDS011;4532;50.886;4.700;2023-03-14T16:41:15;6.67;;;1.80;;
8993;SDS011;4532;50.886;4.700;2023-03-14T16:43:46;10.57;;;2.80;;
8993;SDS011;4532;50.886;4.700;2023-03-14T16:46:19;11.33;;;1.93;;
8993;SDS011;4532;50.886;4.700;2023-03-14T16:48:52;7.77;;;2.03;;
8993;SDS011;4532;50.886;4.700;2023-03-14T16:51:22;7.07;;;1.83;;
8993;SDS011;4532;50.886;4.700;2023-03-14T16:53:52;9.23;;;2.00;;
8993;SDS011;4532;50.886;4.700;2023-03-14T16:56:23;6.30;;;1.63;;
8993;SDS011;4532;50.886;4.700;2023-03-14T16:58:52;8.07;;;1.47;;
8993;SDS011;4532;50.886;4.700;2023-03-14T17:01:19;7.13;;;1.73;;
8993;SDS011;4532;50.886;4.700;2023-03-14T17:03:49;9.47;;;2.40;;
8993;SDS011;4532;50.886;4.700;2023-03-14T17:06:27;8.40;;;1.70;;
8993;SDS011;4532;50.886;4.700;2023-03-14T17:08:59;7.93;;;2.03;;
8993;SDS011;4532;50.886;4.700;2023-03-14T17:11:33;14.60;;;2.40;;
8993;SDS011;4532;50.886;4.700;2023-03-14T17:14:03;12.70;;;2.33;;
8993;SDS011;4532;50.886;4.700;2023-03-14T17:16:32;7.67;;;1.90;;